sensor_id;sensor_type;location;lat;lon;timestamp;temperature;humidity
44607;DHT22;30315;46.072;14.474;2023-06-10T00:02:26;22.20;72.00
44607;DHT22;30315;46.072;14.474;2023-06-10T00:04:54;22.10;72.20
44607;DHT22;30315;46.072;14.474;2023-06-10T00:07:22;22.10;72.40
44607;DHT22;30315;46.072;14.474;2023-06-10T00:09:49;22.00;72.50
44607;DHT22;30315;46.072;14.474;2023-06-10T00:12:17;22.00;72.60
44607;DHT22;30315;46.072;14.474;2023-06-10T00:14:44;21.90;73.00
44607;DHT22;30315;46.072;14.474;2023-06-10T00:17:13;22.00;73.10
44607;DHT22;30315;46.072;14.474;2023-06-10T00:19:42;21.90;73.20
44607;DHT22;30315;46.072;14.474;2023-06-10T00:22:10;21.90;73.60
44607;DHT22;30315;46.072;14.474;2023-06-10T00:24:38;21.90;73.60
44607;DHT22;30315;46.072;14.474;2023-06-10T00:27:06;21.90;73.30
44607;DHT22;30315;46.072;14.474;2023-06-10T00:29:34;21.80;73.30
44607;DHT22;30315;46.072;14.474;2023-06-10T00:32:01;21.80;73.40
44607;DHT22;30315;46.072;14.474;2023-06-10T00:34:28;21.80;73.70
44607;DHT22;30315;46.072;14.474;2023-06-10T00:36:57;21.70;74.00
44607;DHT22;30315;46.072;14.474;2023-06-10T00:39:25;21.70;73.90
44607;DHT22;30315;46.072;14.474;2023-06-10T00:41:52;21.70;73.70
44607;DHT22;30315;46.072;14.474;2023-06-10T00:44:19;21.60;73.80
44607;DHT22;30315;46.072;14.474;2023-06-10T00:46:46;21.60;74.10
44607;DHT22;30315;46.072;14.474;2023-06-10T00:49:14;21.50;73.80
44607;DHT22;30315;46.072;14.474;2023-06-10T00:51:42;21.50;74.10
44607;DHT22;30315;46.072;14.474;2023-06-10T00:54:09;21.50;74.60
44607;DHT22;30315;46.072;14.474;2023-06-10T00:56:40;21.40;74.80
44607;DHT22;30315;46.072;14.474;2023-06-10T00:59:10;21.50;75.00
44607;DHT22;30315;46.072;14.474;2023-06-10T01:01:37;21.40;74.70
44607;DHT22;30315;46.072;14.474;2023-06-10T01:04:05;21.30;74.60
44607;DHT22;30315;46.072;14.474;2023-06-10T01:12:43;21.30;75.20
44607;DHT22;30315;46.072;14.474;2023-06-10T01:15:16;21.30;75.60
44607;DHT22;30315;46.072;14.474;2023-06-10T01:20:26;21.20;76.00
44607;DHT22;30315;46.072;14.474;2023-06-10T01:22:56;21.20;75.60
44607;DHT22;30315;46.072;14.474;2023-06-10T01:25:26;21.10;75.40
44607;DHT22;30315;46.072;14.474;2023-06-10T01:30:59;21.10;75.70
44607;DHT22;30315;46.072;14.474;2023-06-10T01:33:31;21.00;75.40
44607;DHT22;30315;46.072;14.474;2023-06-10T01:36:02;20.90;75.50
44607;DHT22;30315;46.072;14.474;2023-06-10T01:38:39;21.00;75.80
44607;DHT22;30315;46.072;14.474;2023-06-10T01:41:08;20.90;75.60
44607;DHT22;30315;46.072;14.474;2023-06-10T01:43:38;20.90;75.60
44607;DHT22;30315;46.072;14.474;2023-06-10T01:46:06;20.80;75.30
44607;DHT22;30315;46.072;14.474;2023-06-10T01:48:33;20.80;75.50
44607;DHT22;30315;46.072;14.474;2023-06-10T01:51:00;20.80;76.40
44607;DHT22;30315;46.072;14.474;2023-06-10T01:53:27;20.80;76.40
44607;DHT22;30315;46.072;14.474;2023-06-10T01:55:54;20.80;76.00
44607;DHT22;30315;46.072;14.474;2023-06-10T01:58:22;20.80;76.10
44607;DHT22;30315;46.072;14.474;2023-06-10T02:00:49;20.70;76.20
44607;DHT22;30315;46.072;14.474;2023-06-10T02:03:16;20.60;76.40
44607;DHT22;30315;46.072;14.474;2023-06-10T02:05:44;20.70;76.70
44607;DHT22;30315;46.072;14.474;2023-06-10T02:08:11;20.60;76.50
44607;DHT22;30315;46.072;14.474;2023-06-10T02:10:38;20.60;76.50
44607;DHT22;30315;46.072;14.474;2023-06-10T02:13:05;20.60;76.70
44607;DHT22;30315;46.072;14.474;2023-06-10T02:15:33;20.60;76.70
44607;DHT22;30315;46.072;14.474;2023-06-10T02:18:00;20.60;76.50
44607;DHT22;30315;46.072;14.474;2023-06-10T02:23:23;20.50;76.00
44607;DHT22;30315;46.072;14.474;2023-06-10T02:25:50;20.50;76.40
44607;DHT22;30315;46.072;14.474;2023-06-10T02:28:17;20.40;76.70
44607;DHT22;30315;46.072;14.474;2023-06-10T02:30:44;20.40;76.80
44607;DHT22;30315;46.072;14.474;2023-06-10T02:33:14;20.40;77.70
44607;DHT22;30315;46.072;14.474;2023-06-10T02:35:42;20.40;77.30
44607;DHT22;30315;46.072;14.474;2023-06-10T02:38:09;20.40;77.20
44607;DHT22;30315;46.072;14.474;2023-06-10T02:40:37;20.40;77.00
44607;DHT22;30315;46.072;14.474;2023-06-10T02:43:04;20.40;76.90
44607;DHT22;30315;46.072;14.474;2023-06-10T02:45:32;20.40;76.90
44607;DHT22;30315;46.072;14.474;2023-06-10T02:48:00;20.30;76.90
44607;DHT22;30315;46.072;14.474;2023-06-10T02:50:29;20.30;77.00
44607;DHT22;30315;46.072;14.474;2023-06-10T02:53:14;20.30;76.90
44607;DHT22;30315;46.072;14.474;2023-06-10T02:55:46;20.30;77.30
44607;DHT22;30315;46.072;14.474;2023-06-10T02:58:16;20.30;77.30
44607;DHT22;30315;46.072;14.474;2023-06-10T03:00:44;20.20;77.10
44607;DHT22;30315;46.072;14.474;2023-06-10T03:03:12;20.20;77.00
44607;DHT22;30315;46.072;14.474;2023-06-10T03:06:00;20.20;77.00
44607;DHT22;30315;46.072;14.474;2023-06-10T03:08:28;20.20;77.20
44607;DHT22;30315;46.072;14.474;2023-06-10T03:10:56;20.20;77.40
44607;DHT22;30315;46.072;14.474;2023-06-10T03:13:24;20.10;77.30
44607;DHT22;30315;46.072;14.474;2023-06-10T03:15:51;20.20;77.40
44607;DHT22;30315;46.072;14.474;2023-06-10T03:18:20;20.10;77.00
44607;DHT22;30315;46.072;14.474;2023-06-10T03:20:50;20.10;77.00
44607;DHT22;30315;46.072;14.474;2023-06-10T03:23:21;20.10;77.20
44607;DHT22;30315;46.072;14.474;2023-06-10T03:25:51;20.10;77.50
44607;DHT22;30315;46.072;14.474;2023-06-10T03:28:19;20.00;77.50
44607;DHT22;30315;46.072;14.474;2023-06-10T03:30:47;20.10;77.60
44607;DHT22;30315;46.072;14.474;2023-06-10T03:33:14;20.10;77.80
44607;DHT22;30315;46.072;14.474;2023-06-10T03:35:43;20.00;77.70
44607;DHT22;30315;46.072;14.474;2023-06-10T03:38:11;20.10;77.90
44607;DHT22;30315;46.072;14.474;2023-06-10T03:40:39;20.00;77.70
44607;DHT22;30315;46.072;14.474;2023-06-10T03:43:07;20.00;77.90
44607;DHT22;30315;46.072;14.474;2023-06-10T03:45:35;20.00;78.10
44607;DHT22;30315;46.072;14.474;2023-06-10T03:48:03;20.00;77.90
44607;DHT22;30315;46.072;14.474;2023-06-10T03:50:40;20.10;78.10
44607;DHT22;30315;46.072;14.474;2023-06-10T03:53:07;20.10;78.20
44607;DHT22;30315;46.072;14.474;2023-06-10T03:55:36;20.10;78.40
44607;DHT22;30315;46.072;14.474;2023-06-10T03:58:04;20.10;78.50
44607;DHT22;30315;46.072;14.474;2023-06-10T04:00:31;20.10;78.70
44607;DHT22;30315;46.072;14.474;2023-06-10T04:03:09;20.10;78.80
44607;DHT22;30315;46.072;14.474;2023-06-10T04:05:41;20.10;78.90
44607;DHT22;30315;46.072;14.474;2023-06-10T04:08:08;20.10;79.00
44607;DHT22;30315;46.072;14.474;2023-06-10T04:10:35;20.10;79.20
44607;DHT22;30315;46.072;14.474;2023-06-10T04:13:03;20.10;79.20
44607;DHT22;30315;46.072;14.474;2023-06-10T04:15:36;20.10;79.20
44607;DHT22;30315;46.072;14.474;2023-06-10T04:18:07;20.20;79.60
44607;DHT22;30315;46.072;14.474;2023-06-10T04:20:35;20.20;79.50
44607;DHT22;30315;46.072;14.474;2023-06-10T04:23:03;20.20;79.60
44607;DHT22;30315;46.072;14.474;2023-06-10T04:25:30;20.20;80.00
44607;DHT22;30315;46.072;14.474;2023-06-10T04:27:57;20.20;80.00
44607;DHT22;30315;46.072;14.474;2023-06-10T04:30:25;20.20;80.00
44607;DHT22;30315;46.072;14.474;2023-06-10T04:32:52;20.20;80.10
44607;DHT22;30315;46.072;14.474;2023-06-10T04:35:19;20.20;80.10
44607;DHT22;30315;46.072;14.474;2023-06-10T04:37:47;20.20;80.20
44607;DHT22;30315;46.072;14.474;2023-06-10T04:40:15;20.20;80.50
44607;DHT22;30315;46.072;14.474;2023-06-10T04:42:43;20.20;80.70
44607;DHT22;30315;46.072;14.474;2023-06-10T04:45:12;20.20;80.80
44607;DHT22;30315;46.072;14.474;2023-06-10T04:47:40;20.20;80.80
44607;DHT22;30315;46.072;14.474;2023-06-10T04:50:07;20.20;80.90
44607;DHT22;30315;46.072;14.474;2023-06-10T04:52:35;20.20;81.20
44607;DHT22;30315;46.072;14.474;2023-06-10T04:55:02;20.20;81.40
44607;DHT22;30315;46.072;14.474;2023-06-10T04:57:29;20.20;81.20
44607;DHT22;30315;46.072;14.474;2023-06-10T04:59:56;20.20;81.10
44607;DHT22;30315;46.072;14.474;2023-06-10T05:02:23;20.20;81.20
44607;DHT22;30315;46.072;14.474;2023-06-10T05:04:50;20.20;81.30
44607;DHT22;30315;46.072;14.474;2023-06-10T05:07:17;20.20;82.00
44607;DHT22;30315;46.072;14.474;2023-06-10T05:09:44;20.20;81.30
44607;DHT22;30315;46.072;14.474;2023-06-10T05:12:12;20.20;81.00
44607;DHT22;30315;46.072;14.474;2023-06-10T05:14:38;20.30;81.00
44607;DHT22;30315;46.072;14.474;2023-06-10T05:17:05;20.20;81.00
44607;DHT22;30315;46.072;14.474;2023-06-10T05:19:32;20.30;81.30
44607;DHT22;30315;46.072;14.474;2023-06-10T05:22:00;20.30;81.00
44607;DHT22;30315;46.072;14.474;2023-06-10T05:24:27;20.40;81.50
44607;DHT22;30315;46.072;14.474;2023-06-10T05:26:54;20.40;81.60
44607;DHT22;30315;46.072;14.474;2023-06-10T05:29:21;20.40;81.50
44607;DHT22;30315;46.072;14.474;2023-06-10T05:31:48;20.40;81.40
44607;DHT22;30315;46.072;14.474;2023-06-10T05:34:15;20.40;81.50
44607;DHT22;30315;46.072;14.474;2023-06-10T05:36:42;20.40;81.70
44607;DHT22;30315;46.072;14.474;2023-06-10T05:39:10;20.40;81.70
44607;DHT22;30315;46.072;14.474;2023-06-10T05:41:37;20.50;81.90
44607;DHT22;30315;46.072;14.474;2023-06-10T05:44:04;20.50;81.90
44607;DHT22;30315;46.072;14.474;2023-06-10T05:46:31;20.50;82.00
44607;DHT22;30315;46.072;14.474;2023-06-10T05:49:04;20.50;82.30
44607;DHT22;30315;46.072;14.474;2023-06-10T05:51:31;20.60;82.10
44607;DHT22;30315;46.072;14.474;2023-06-10T05:53:58;20.60;82.40
44607;DHT22;30315;46.072;14.474;2023-06-10T05:56:36;20.60;82.60
44607;DHT22;30315;46.072;14.474;2023-06-10T05:59:04;20.50;82.40
44607;DHT22;30315;46.072;14.474;2023-06-10T06:01:31;20.60;82.50
44607;DHT22;30315;46.072;14.474;2023-06-10T06:03:58;20.70;82.70
44607;DHT22;30315;46.072;14.474;2023-06-10T06:06:28;20.80;82.90
44607;DHT22;30315;46.072;14.474;2023-06-10T06:08:55;20.70;82.70
44607;DHT22;30315;46.072;14.474;2023-06-10T06:11:22;20.80;82.70
44607;DHT22;30315;46.072;14.474;2023-06-10T06:13:51;20.90;82.70
44607;DHT22;30315;46.072;14.474;2023-06-10T06:16:19;21.00;82.50
44607;DHT22;30315;46.072;14.474;2023-06-10T06:18:46;21.00;82.40
44607;DHT22;30315;46.072;14.474;2023-06-10T06:21:13;21.00;82.40
44607;DHT22;30315;46.072;14.474;2023-06-10T06:23:40;21.10;82.50
44607;DHT22;30315;46.072;14.474;2023-06-10T06:26:08;21.10;82.60
44607;DHT22;30315;46.072;14.474;2023-06-10T06:28:35;21.10;83.30
44607;DHT22;30315;46.072;14.474;2023-06-10T06:31:02;21.10;82.50
44607;DHT22;30315;46.072;14.474;2023-06-10T06:33:29;21.20;82.10
44607;DHT22;30315;46.072;14.474;2023-06-10T06:35:56;21.20;82.20
44607;DHT22;30315;46.072;14.474;2023-06-10T06:38:23;21.20;82.10
44607;DHT22;30315;46.072;14.474;2023-06-10T06:40:50;21.20;82.00
44607;DHT22;30315;46.072;14.474;2023-06-10T06:43:17;21.30;82.00
44607;DHT22;30315;46.072;14.474;2023-06-10T06:46:18;21.30;82.20
44607;DHT22;30315;46.072;14.474;2023-06-10T06:48:45;21.30;82.00
44607;DHT22;30315;46.072;14.474;2023-06-10T06:51:12;21.30;81.90
44607;DHT22;30315;46.072;14.474;2023-06-10T06:53:40;21.40;81.60
44607;DHT22;30315;46.072;14.474;2023-06-10T06:56:11;21.30;81.20
44607;DHT22;30315;46.072;14.474;2023-06-10T06:58:44;21.40;81.00
44607;DHT22;30315;46.072;14.474;2023-06-10T07:01:15;21.40;81.10
44607;DHT22;30315;46.072;14.474;2023-06-10T07:03:42;21.40;81.40
44607;DHT22;30315;46.072;14.474;2023-06-10T07:06:09;21.50;81.60
44607;DHT22;30315;46.072;14.474;2023-06-10T07:08:36;21.60;81.70
44607;DHT22;30315;46.072;14.474;2023-06-10T07:11:03;21.60;80.90
44607;DHT22;30315;46.072;14.474;2023-06-10T07:13:30;21.60;80.50
44607;DHT22;30315;46.072;14.474;2023-06-10T07:15:57;21.60;80.10
44607;DHT22;30315;46.072;14.474;2023-06-10T07:18:24;21.70;80.30
44607;DHT22;30315;46.072;14.474;2023-06-10T07:20:51;21.70;79.80
44607;DHT22;30315;46.072;14.474;2023-06-10T07:23:18;21.70;80.70
44607;DHT22;30315;46.072;14.474;2023-06-10T07:25:45;21.70;80.60
44607;DHT22;30315;46.072;14.474;2023-06-10T07:28:12;21.70;79.80
44607;DHT22;30315;46.072;14.474;2023-06-10T07:30:39;21.70;79.80
44607;DHT22;30315;46.072;14.474;2023-06-10T07:33:06;21.80;79.80
44607;DHT22;30315;46.072;14.474;2023-06-10T07:35:34;21.70;79.90
44607;DHT22;30315;46.072;14.474;2023-06-10T07:38:01;21.80;80.20
44607;DHT22;30315;46.072;14.474;2023-06-10T07:40:28;21.80;80.30
44607;DHT22;30315;46.072;14.474;2023-06-10T07:43:03;21.80;80.50
44607;DHT22;30315;46.072;14.474;2023-06-10T07:45:46;21.90;80.90
44607;DHT22;30315;46.072;14.474;2023-06-10T07:48:28;22.00;80.30
44607;DHT22;30315;46.072;14.474;2023-06-10T07:51:03;22.00;79.80
44607;DHT22;30315;46.072;14.474;2023-06-10T07:53:30;22.10;79.90
44607;DHT22;30315;46.072;14.474;2023-06-10T07:55:58;22.20;79.90
44607;DHT22;30315;46.072;14.474;2023-06-10T07:58:28;22.30;79.90
44607;DHT22;30315;46.072;14.474;2023-06-10T08:00:57;22.40;79.90
44607;DHT22;30315;46.072;14.474;2023-06-10T08:03:24;22.40;79.20
44607;DHT22;30315;46.072;14.474;2023-06-10T08:05:53;22.40;79.00
44607;DHT22;30315;46.072;14.474;2023-06-10T08:08:25;22.50;79.20
44607;DHT22;30315;46.072;14.474;2023-06-10T08:10:53;22.50;79.00
44607;DHT22;30315;46.072;14.474;2023-06-10T08:13:19;22.60;79.20
44607;DHT22;30315;46.072;14.474;2023-06-10T08:15:47;22.70;79.20
44607;DHT22;30315;46.072;14.474;2023-06-10T08:18:17;22.80;79.00
44607;DHT22;30315;46.072;14.474;2023-06-10T08:20:44;22.90;78.90
44607;DHT22;30315;46.072;14.474;2023-06-10T08:23:11;22.90;78.80
44607;DHT22;30315;46.072;14.474;2023-06-10T08:25:38;23.00;78.70
44607;DHT22;30315;46.072;14.474;2023-06-10T08:28:05;23.10;78.50
44607;DHT22;30315;46.072;14.474;2023-06-10T08:30:33;23.10;78.00
44607;DHT22;30315;46.072;14.474;2023-06-10T08:33:06;23.20;77.50
44607;DHT22;30315;46.072;14.474;2023-06-10T08:35:36;22.90;77.40
44607;DHT22;30315;46.072;14.474;2023-06-10T08:38:03;23.30;77.80
44607;DHT22;30315;46.072;14.474;2023-06-10T08:40:31;23.30;77.40
44607;DHT22;30315;46.072;14.474;2023-06-10T08:43:14;23.30;77.30
44607;DHT22;30315;46.072;14.474;2023-06-10T08:45:55;23.40;76.90
44607;DHT22;30315;46.072;14.474;2023-06-10T08:48:25;23.50;76.90
44607;DHT22;30315;46.072;14.474;2023-06-10T08:50:55;23.50;76.70
44607;DHT22;30315;46.072;14.474;2023-06-10T08:53:24;23.50;76.60
44607;DHT22;30315;46.072;14.474;2023-06-10T08:55:53;23.60;76.80
44607;DHT22;30315;46.072;14.474;2023-06-10T08:58:22;23.70;76.90
44607;DHT22;30315;46.072;14.474;2023-06-10T09:00:53;23.70;75.90
44607;DHT22;30315;46.072;14.474;2023-06-10T09:03:26;23.70;76.00
44607;DHT22;30315;46.072;14.474;2023-06-10T09:05:55;23.80;76.10
44607;DHT22;30315;46.072;14.474;2023-06-10T09:08:23;23.90;76.10
44607;DHT22;30315;46.072;14.474;2023-06-10T09:10:50;23.90;75.40
44607;DHT22;30315;46.072;14.474;2023-06-10T09:13:17;23.90;75.30
44607;DHT22;30315;46.072;14.474;2023-06-10T09:15:45;24.00;75.50
44607;DHT22;30315;46.072;14.474;2023-06-10T09:18:12;24.00;75.60
44607;DHT22;30315;46.072;14.474;2023-06-10T09:20:41;24.10;75.50
44607;DHT22;30315;46.072;14.474;2023-06-10T09:23:08;24.20;75.10
44607;DHT22;30315;46.072;14.474;2023-06-10T09:25:37;24.20;75.40
44607;DHT22;30315;46.072;14.474;2023-06-10T09:28:06;24.30;75.00
44607;DHT22;30315;46.072;14.474;2023-06-10T09:30:39;24.40;74.20
44607;DHT22;30315;46.072;14.474;2023-06-10T09:33:12;24.50;75.10
44607;DHT22;30315;46.072;14.474;2023-06-10T09:35:48;24.50;75.30
44607;DHT22;30315;46.072;14.474;2023-06-10T09:38:22;24.70;74.60
44607;DHT22;30315;46.072;14.474;2023-06-10T09:40:53;24.80;75.20
44607;DHT22;30315;46.072;14.474;2023-06-10T09:43:21;24.80;76.20
44607;DHT22;30315;46.072;14.474;2023-06-10T09:45:49;24.90;74.60
44607;DHT22;30315;46.072;14.474;2023-06-10T09:48:17;25.00;74.70
44607;DHT22;30315;46.072;14.474;2023-06-10T09:50:45;25.10;75.00
44607;DHT22;30315;46.072;14.474;2023-06-10T09:53:12;25.10;75.20
44607;DHT22;30315;46.072;14.474;2023-06-10T09:55:41;25.20;74.50
44607;DHT22;30315;46.072;14.474;2023-06-10T09:58:08;25.30;75.00
44607;DHT22;30315;46.072;14.474;2023-06-10T10:00:36;25.40;74.60
44607;DHT22;30315;46.072;14.474;2023-06-10T10:03:03;25.40;73.70
44607;DHT22;30315;46.072;14.474;2023-06-10T10:05:30;25.50;74.20
44607;DHT22;30315;46.072;14.474;2023-06-10T10:07:57;25.50;73.10
44607;DHT22;30315;46.072;14.474;2023-06-10T10:10:24;25.60;73.40
44607;DHT22;30315;46.072;14.474;2023-06-10T10:12:54;25.70;73.50
44607;DHT22;30315;46.072;14.474;2023-06-10T10:15:28;25.70;73.30
44607;DHT22;30315;46.072;14.474;2023-06-10T10:18:09;25.70;73.20
44607;DHT22;30315;46.072;14.474;2023-06-10T10:20:47;25.70;73.30
44607;DHT22;30315;46.072;14.474;2023-06-10T10:23:21;25.80;74.40
44607;DHT22;30315;46.072;14.474;2023-06-10T10:25:53;25.80;72.80
44607;DHT22;30315;46.072;14.474;2023-06-10T10:28:24;25.80;72.90
44607;DHT22;30315;46.072;14.474;2023-06-10T10:31:00;25.80;73.70
44607;DHT22;30315;46.072;14.474;2023-06-10T10:36:54;25.80;72.00
44607;DHT22;30315;46.072;14.474;2023-06-10T10:39:25;26.10;72.20
44607;DHT22;30315;46.072;14.474;2023-06-10T10:41:55;25.70;72.40
44607;DHT22;30315;46.072;14.474;2023-06-10T10:44:23;25.80;72.80
44607;DHT22;30315;46.072;14.474;2023-06-10T10:46:51;25.80;73.30
44607;DHT22;30315;46.072;14.474;2023-06-10T10:49:19;25.90;72.70
44607;DHT22;30315;46.072;14.474;2023-06-10T10:51:57;25.90;72.80
44607;DHT22;30315;46.072;14.474;2023-06-10T10:54:43;25.90;72.20
44607;DHT22;30315;46.072;14.474;2023-06-10T10:57:18;26.00;70.80
44607;DHT22;30315;46.072;14.474;2023-06-10T11:02:45;26.00;70.50
44607;DHT22;30315;46.072;14.474;2023-06-10T11:05:46;26.00;70.30
44607;DHT22;30315;46.072;14.474;2023-06-10T11:11:00;26.00;70.00
44607;DHT22;30315;46.072;14.474;2023-06-10T11:13:30;26.10;70.20
44607;DHT22;30315;46.072;14.474;2023-06-10T11:16:04;26.10;70.60
44607;DHT22;30315;46.072;14.474;2023-06-10T11:18:42;26.10;71.00
44607;DHT22;30315;46.072;14.474;2023-06-10T11:21:13;26.10;70.90
44607;DHT22;30315;46.072;14.474;2023-06-10T11:23:43;26.20;70.60
44607;DHT22;30315;46.072;14.474;2023-06-10T11:29:06;26.30;69.40
44607;DHT22;30315;46.072;14.474;2023-06-10T11:31:45;26.30;69.50
44607;DHT22;30315;46.072;14.474;2023-06-10T11:34:15;26.40;69.90
44607;DHT22;30315;46.072;14.474;2023-06-10T11:36:43;26.60;69.80
44607;DHT22;30315;46.072;14.474;2023-06-10T11:39:12;26.40;69.80
44607;DHT22;30315;46.072;14.474;2023-06-10T11:41:39;26.50;69.70
44607;DHT22;30315;46.072;14.474;2023-06-10T11:44:11;26.50;69.70
44607;DHT22;30315;46.072;14.474;2023-06-10T11:46:47;26.50;70.20
44607;DHT22;30315;46.072;14.474;2023-06-10T11:49:14;26.50;69.80
44607;DHT22;30315;46.072;14.474;2023-06-10T11:51:41;26.40;69.40
44607;DHT22;30315;46.072;14.474;2023-06-10T11:54:16;26.30;69.60
44607;DHT22;30315;46.072;14.474;2023-06-10T11:56:44;26.20;70.20
44607;DHT22;30315;46.072;14.474;2023-06-10T11:59:11;26.20;70.40
44607;DHT22;30315;46.072;14.474;2023-06-10T12:01:43;26.10;70.80
44607;DHT22;30315;46.072;14.474;2023-06-10T12:04:12;26.10;70.90
44607;DHT22;30315;46.072;14.474;2023-06-10T12:06:45;26.00;71.30
44607;DHT22;30315;46.072;14.474;2023-06-10T12:20:03;25.90;72.80
44607;DHT22;30315;46.072;14.474;2023-06-10T12:22:39;25.90;72.90
44607;DHT22;30315;46.072;14.474;2023-06-10T12:25:06;25.80;73.00
44607;DHT22;30315;46.072;14.474;2023-06-10T12:27:35;25.70;72.50
44607;DHT22;30315;46.072;14.474;2023-06-10T12:30:05;25.70;72.70
44607;DHT22;30315;46.072;14.474;2023-06-10T12:35:04;25.60;72.10
44607;DHT22;30315;46.072;14.474;2023-06-10T12:37:31;25.50;71.70
44607;DHT22;30315;46.072;14.474;2023-06-10T12:40:04;25.40;71.70
44607;DHT22;30315;46.072;14.474;2023-06-10T12:42:38;25.30;71.90
44607;DHT22;30315;46.072;14.474;2023-06-10T12:45:06;25.30;72.10
44607;DHT22;30315;46.072;14.474;2023-06-10T12:47:37;25.30;72.40
44607;DHT22;30315;46.072;14.474;2023-06-10T12:50:08;25.20;72.60
44607;DHT22;30315;46.072;14.474;2023-06-10T12:52:36;25.20;73.10
44607;DHT22;30315;46.072;14.474;2023-06-10T12:55:03;25.20;72.60
44607;DHT22;30315;46.072;14.474;2023-06-10T12:57:31;25.10;72.40
44607;DHT22;30315;46.072;14.474;2023-06-10T12:59:58;25.10;72.90
44607;DHT22;30315;46.072;14.474;2023-06-10T13:02:31;25.10;73.10
44607;DHT22;30315;46.072;14.474;2023-06-10T13:04:58;25.10;73.30
44607;DHT22;30315;46.072;14.474;2023-06-10T13:07:25;25.10;73.10
44607;DHT22;30315;46.072;14.474;2023-06-10T13:09:53;25.10;73.00
44607;DHT22;30315;46.072;14.474;2023-06-10T13:12:20;25.10;73.00
44607;DHT22;30315;46.072;14.474;2023-06-10T13:14:59;25.10;72.50
44607;DHT22;30315;46.072;14.474;2023-06-10T13:17:27;25.10;72.10
44607;DHT22;30315;46.072;14.474;2023-06-10T13:19:54;25.10;71.60
44607;DHT22;30315;46.072;14.474;2023-06-10T13:22:21;25.10;71.50
44607;DHT22;30315;46.072;14.474;2023-06-10T13:24:48;25.10;72.00
44607;DHT22;30315;46.072;14.474;2023-06-10T13:27:15;25.10;72.10
44607;DHT22;30315;46.072;14.474;2023-06-10T13:29:42;25.10;72.20
44607;DHT22;30315;46.072;14.474;2023-06-10T13:32:09;25.10;72.70
44607;DHT22;30315;46.072;14.474;2023-06-10T13:34:36;25.10;72.70
44607;DHT22;30315;46.072;14.474;2023-06-10T13:37:03;25.10;72.80
44607;DHT22;30315;46.072;14.474;2023-06-10T13:39:31;25.10;72.90
44607;DHT22;30315;46.072;14.474;2023-06-10T13:41:59;25.20;73.40
44607;DHT22;30315;46.072;14.474;2023-06-10T13:44:25;25.20;73.20
44607;DHT22;30315;46.072;14.474;2023-06-10T13:46:52;25.20;73.00
44607;DHT22;30315;46.072;14.474;2023-06-10T13:49:20;25.20;72.40
44607;DHT22;30315;46.072;14.474;2023-06-10T13:51:47;25.30;72.40
44607;DHT22;30315;46.072;14.474;2023-06-10T13:54:14;25.20;71.80
44607;DHT22;30315;46.072;14.474;2023-06-10T13:56:42;25.20;71.50
44607;DHT22;30315;46.072;14.474;2023-06-10T13:59:09;25.20;71.60
44607;DHT22;30315;46.072;14.474;2023-06-10T14:01:36;25.20;71.60
44607;DHT22;30315;46.072;14.474;2023-06-10T14:04:04;25.10;71.50
44607;DHT22;30315;46.072;14.474;2023-06-10T14:06:32;25.10;71.60
44607;DHT22;30315;46.072;14.474;2023-06-10T14:09:00;25.10;71.70
44607;DHT22;30315;46.072;14.474;2023-06-10T14:11:27;25.10;72.20
44607;DHT22;30315;46.072;14.474;2023-06-10T14:13:54;25.10;72.20
44607;DHT22;30315;46.072;14.474;2023-06-10T14:16:24;25.10;72.60
44607;DHT22;30315;46.072;14.474;2023-06-10T14:18:51;25.00;73.00
44607;DHT22;30315;46.072;14.474;2023-06-10T14:21:18;24.90;73.30
44607;DHT22;30315;46.072;14.474;2023-06-10T14:23:45;24.90;73.60
44607;DHT22;30315;46.072;14.474;2023-06-10T14:26:12;24.90;73.90
44607;DHT22;30315;46.072;14.474;2023-06-10T14:28:39;24.90;74.30
44607;DHT22;30315;46.072;14.474;2023-06-10T14:31:06;24.90;74.50
44607;DHT22;30315;46.072;14.474;2023-06-10T14:33:34;24.90;73.70
44607;DHT22;30315;46.072;14.474;2023-06-10T14:36:01;24.90;73.10
44607;DHT22;30315;46.072;14.474;2023-06-10T14:38:28;24.80;73.10
44607;DHT22;30315;46.072;14.474;2023-06-10T14:40:55;24.80;72.30
44607;DHT22;30315;46.072;14.474;2023-06-10T14:43:22;24.80;72.50
44607;DHT22;30315;46.072;14.474;2023-06-10T14:45:49;24.80;72.90
44607;DHT22;30315;46.072;14.474;2023-06-10T14:48:18;24.80;72.60
44607;DHT22;30315;46.072;14.474;2023-06-10T14:50:45;24.80;72.70
44607;DHT22;30315;46.072;14.474;2023-06-10T14:53:18;24.80;72.90
44607;DHT22;30315;46.072;14.474;2023-06-10T14:55:45;24.80;72.10
44607;DHT22;30315;46.072;14.474;2023-06-10T14:58:12;24.80;72.10
44607;DHT22;30315;46.072;14.474;2023-06-10T15:00:39;24.80;72.30
44607;DHT22;30315;46.072;14.474;2023-06-10T15:03:06;24.90;72.30
44607;DHT22;30315;46.072;14.474;2023-06-10T15:05:33;24.90;72.00
44607;DHT22;30315;46.072;14.474;2023-06-10T15:08:01;24.90;70.70
44607;DHT22;30315;46.072;14.474;2023-06-10T15:10:28;24.90;70.90
44607;DHT22;30315;46.072;14.474;2023-06-10T15:12:55;24.90;70.80
44607;DHT22;30315;46.072;14.474;2023-06-10T15:15:24;25.00;71.00
44607;DHT22;30315;46.072;14.474;2023-06-10T15:17:54;25.10;72.00
44607;DHT22;30315;46.072;14.474;2023-06-10T15:20:21;25.10;71.80
44607;DHT22;30315;46.072;14.474;2023-06-10T15:22:48;25.10;71.90
44607;DHT22;30315;46.072;14.474;2023-06-10T15:25:15;25.30;72.50
44607;DHT22;30315;46.072;14.474;2023-06-10T15:27:57;25.50;72.20
44607;DHT22;30315;46.072;14.474;2023-06-10T15:30:24;25.70;72.10
44607;DHT22;30315;46.072;14.474;2023-06-10T15:32:51;25.70;71.80
44607;DHT22;30315;46.072;14.474;2023-06-10T15:35:18;26.00;71.70
44607;DHT22;30315;46.072;14.474;2023-06-10T15:37:45;26.10;71.30
44607;DHT22;30315;46.072;14.474;2023-06-10T15:40:12;26.30;71.20
44607;DHT22;30315;46.072;14.474;2023-06-10T15:42:39;26.50;70.60
44607;DHT22;30315;46.072;14.474;2023-06-10T15:45:07;26.80;70.10
44607;DHT22;30315;46.072;14.474;2023-06-10T15:47:34;26.80;69.30
44607;DHT22;30315;46.072;14.474;2023-06-10T15:50:01;26.90;69.00
44607;DHT22;30315;46.072;14.474;2023-06-10T15:52:29;27.10;68.70
44607;DHT22;30315;46.072;14.474;2023-06-10T15:54:56;27.20;68.00
44607;DHT22;30315;46.072;14.474;2023-06-10T15:57:23;27.40;67.70
44607;DHT22;30315;46.072;14.474;2023-06-10T15:59:53;27.60;68.10
44607;DHT22;30315;46.072;14.474;2023-06-10T16:02:30;27.80;67.40
44607;DHT22;30315;46.072;14.474;2023-06-10T16:05:04;27.90;67.00
44607;DHT22;30315;46.072;14.474;2023-06-10T16:07:31;28.00;66.80